sensor_id;sensor_type;location;lat;lon;timestamp;pressure;altitude;pressure_sealevel;temperature;humidity
64115;BME280;62188;35.640;139.748;2023-05-14T00:01:45;101730.19;;;19.88;41.65
64115;BME280;62188;35.640;139.748;2023-05-14T00:04:11;101729.59;;;20.06;42.45
64115;BME280;62188;35.640;139.748;2023-05-14T00:06:37;101723.93;;;20.19;42.71
64115;BME280;62188;35.640;139.748;2023-05-14T00:09:02;101714.45;;;20.55;42.92
64115;BME280;62188;35.640;139.748;2023-05-14T00:11:28;101709.84;;;20.45;42.58
64115;BME280;62188;35.640;139.748;2023-05-14T00:13:53;101712.77;;;20.64;41.78
64115;BME280;62188;35.640;139.748;2023-05-14T00:16:18;101709.45;;;20.35;41.20
64115;BME280;62188;35.640;139.748;2023-05-14T00:18:43;101711.89;;;21.14;41.41
64115;BME280;62188;35.640;139.748;2023-05-14T00:21:09;101712.63;;;20.69;40.63
64115;BME280;62188;35.640;139.748;2023-05-14T00:23:34;101707.57;;;21.08;40.89
64115;BME280;62188;35.640;139.748;2023-05-14T00:26:00;101695.93;;;20.89;39.55
64115;BME280;62188;35.640;139.748;2023-05-14T00:28:26;101698.89;;;20.86;38.89
64115;BME280;62188;35.640;139.748;2023-05-14T00:30:52;101706.88;;;20.63;39.14
64115;BME280;62188;35.640;139.748;2023-05-14T00:33:17;101717.22;;;21.01;39.79
64115;BME280;62188;35.640;139.748;2023-05-14T00:35:43;101713.57;;;20.98;39.24
64115;BME280;62188;35.640;139.748;2023-05-14T00:38:08;101708.02;;;20.95;39.62
64115;BME280;62188;35.640;139.748;2023-05-14T00:40:33;101700.82;;;21.14;39.63
64115;BME280;62188;35.640;139.748;2023-05-14T00:42:59;101708.39;;;21.01;39.82
64115;BME280;62188;35.640;139.748;2023-05-14T00:45:25;101714.81;;;20.91;39.03
64115;BME280;62188;35.640;139.748;2023-05-14T00:47:50;101717.19;;;20.94;39.04
64115;BME280;62188;35.640;139.748;2023-05-14T00:50:16;101721.11;;;21.05;39.54
64115;BME280;62188;35.640;139.748;2023-05-14T00:52:41;101720.83;;;20.80;39.59
64115;BME280;62188;35.640;139.748;2023-05-14T00:55:07;101722.33;;;20.84;39.78
64115;BME280;62188;35.640;139.748;2023-05-14T00:57:31;101725.79;;;20.87;39.63
64115;BME280;62188;35.640;139.748;2023-05-14T00:59:57;101716.18;;;20.28;40.24
64115;BME280;62188;35.640;139.748;2023-05-14T01:02:22;101716.47;;;20.76;40.59
64115;BME280;62188;35.640;139.748;2023-05-14T01:04:48;101715.09;;;20.79;41.04
64115;BME280;62188;35.640;139.748;2023-05-14T01:07:19;101714.77;;;20.66;41.16
64115;BME280;62188;35.640;139.748;2023-05-14T01:09:45;101715.81;;;20.36;41.31
64115;BME280;62188;35.640;139.748;2023-05-14T01:12:13;101722.17;;;20.37;41.59
64115;BME280;62188;35.640;139.748;2023-05-14T01:14:36;101719.49;;;20.56;41.84
64115;BME280;62188;35.640;139.748;2023-05-14T01:16:57;101723.62;;;20.41;41.80
64115;BME280;62188;35.640;139.748;2023-05-14T01:19:28;101718.67;;;20.28;41.76
64115;BME280;62188;35.640;139.748;2023-05-14T01:21:46;101714.57;;;20.16;41.95
64115;BME280;62188;35.640;139.748;2023-05-14T01:24:12;101712.13;;;19.98;41.87
64115;BME280;62188;35.640;139.748;2023-05-14T01:26:37;101712.28;;;19.93;42.04
64115;BME280;62188;35.640;139.748;2023-05-14T01:29:07;101709.21;;;20.19;42.02
64115;BME280;62188;35.640;139.748;2023-05-14T01:31:30;101708.92;;;20.26;42.19
64115;BME280;62188;35.640;139.748;2023-05-14T01:33:54;101704.75;;;20.36;42.16
64115;BME280;62188;35.640;139.748;2023-05-14T01:36:19;101698.24;;;20.47;41.99
64115;BME280;62188;35.640;139.748;2023-05-14T01:38:45;101698.90;;;20.33;41.57
64115;BME280;62188;35.640;139.748;2023-05-14T01:41:11;101684.41;;;20.33;41.49
64115;BME280;62188;35.640;139.748;2023-05-14T01:43:36;101682.20;;;20.58;41.30
64115;BME280;62188;35.640;139.748;2023-05-14T01:46:01;101688.53;;;20.45;41.10
64115;BME280;62188;35.640;139.748;2023-05-14T01:48:27;101690.39;;;20.58;40.87
64115;BME280;62188;35.640;139.748;2023-05-14T01:50:52;101685.12;;;20.89;40.70
64115;BME280;62188;35.640;139.748;2023-05-14T01:53:18;101677.77;;;20.71;40.47
64115;BME280;62188;35.640;139.748;2023-05-14T01:55:43;101668.85;;;20.73;40.72
64115;BME280;62188;35.640;139.748;2023-05-14T01:58:08;101667.71;;;21.34;40.63
64115;BME280;62188;35.640;139.748;2023-05-14T02:00:34;101667.33;;;20.70;40.15
64115;BME280;62188;35.640;139.748;2023-05-14T02:02:59;101649.29;;;21.01;40.10
64115;BME280;62188;35.640;139.748;2023-05-14T02:05:25;101650.07;;;20.98;40.01
64115;BME280;62188;35.640;139.748;2023-05-14T02:07:50;101650.80;;;20.94;40.06
64115;BME280;62188;35.640;139.748;2023-05-14T02:10:16;101647.89;;;21.03;39.98
64115;BME280;62188;35.640;139.748;2023-05-14T02:12:41;101637.96;;;21.07;39.44
64115;BME280;62188;35.640;139.748;2023-05-14T02:15:08;101637.30;;;21.20;39.29
64115;BME280;62188;35.640;139.748;2023-05-14T02:17:32;101636.93;;;21.30;39.26
64115;BME280;62188;35.640;139.748;2023-05-14T02:19:57;101627.43;;;21.25;38.91
64115;BME280;62188;35.640;139.748;2023-05-14T02:22:24;101622.29;;;21.51;38.60
64115;BME280;62188;35.640;139.748;2023-05-14T02:24:48;101625.29;;;21.60;37.89
64115;BME280;62188;35.640;139.748;2023-05-14T02:27:14;101629.45;;;21.86;37.95
64115;BME280;62188;35.640;139.748;2023-05-14T02:29:40;101628.67;;;21.56;37.76
64115;BME280;62188;35.640;139.748;2023-05-14T02:32:05;101626.00;;;21.58;37.58
64115;BME280;62188;35.640;139.748;2023-05-14T02:34:30;101623.22;;;21.54;37.53
64115;BME280;62188;35.640;139.748;2023-05-14T02:36:55;101608.65;;;21.46;36.98
64115;BME280;62188;35.640;139.748;2023-05-14T02:39:21;101605.44;;;21.69;36.86
64115;BME280;62188;35.640;139.748;2023-05-14T02:41:46;101599.78;;;21.82;36.85
64115;BME280;62188;35.640;139.748;2023-05-14T02:44:13;101594.88;;;22.24;37.00
64115;BME280;62188;35.640;139.748;2023-05-14T02:46:38;101587.95;;;22.21;36.93
64115;BME280;62188;35.640;139.748;2023-05-14T02:49:03;101592.40;;;22.40;36.42
64115;BME280;62188;35.640;139.748;2023-05-14T02:51:28;101587.05;;;22.12;36.52
64115;BME280;62188;35.640;139.748;2023-05-14T02:53:53;101582.33;;;22.16;36.05
64115;BME280;62188;35.640;139.748;2023-05-14T02:56:20;101580.29;;;22.18;36.37
64115;BME280;62188;35.640;139.748;2023-05-14T02:58:45;101581.59;;;22.25;36.11
64115;BME280;62188;35.640;139.748;2023-05-14T03:01:10;101573.31;;;22.31;35.97
64115;BME280;62188;35.640;139.748;2023-05-14T03:03:36;101572.82;;;22.60;35.99
64115;BME280;62188;35.640;139.748;2023-05-14T03:06:01;101579.24;;;22.31;35.45
64115;BME280;62188;35.640;139.748;2023-05-14T03:08:27;101579.01;;;21.99;35.33
64115;BME280;62188;35.640;139.748;2023-05-14T03:10:52;101572.81;;;22.16;35.74
64115;BME280;62188;35.640;139.748;2023-05-14T03:13:17;101568.47;;;22.25;35.85
64115;BME280;62188;35.640;139.748;2023-05-14T03:15:43;101557.06;;;22.01;35.74
64115;BME280;62188;35.640;139.748;2023-05-14T03:18:08;101556.90;;;21.97;35.98
64115;BME280;62188;35.640;139.748;2023-05-14T03:20:34;101553.35;;;21.83;36.43
64115;BME280;62188;35.640;139.748;2023-05-14T03:23:00;101551.64;;;21.98;36.43
64115;BME280;62188;35.640;139.748;2023-05-14T03:25:25;101554.57;;;21.99;36.99
64115;BME280;62188;35.640;139.748;2023-05-14T03:27:50;101549.71;;;21.78;36.59
64115;BME280;62188;35.640;139.748;2023-05-14T03:30:17;101555.78;;;21.69;36.94
64115;BME280;62188;35.640;139.748;2023-05-14T03:32:42;101547.28;;;21.69;36.64
64115;BME280;62188;35.640;139.748;2023-05-14T03:35:07;101543.02;;;21.95;37.16
64115;BME280;62188;35.640;139.748;2023-05-14T03:37:32;101544.55;;;21.85;37.20
64115;BME280;62188;35.640;139.748;2023-05-14T03:39:58;101536.89;;;22.08;36.51
64115;BME280;62188;35.640;139.748;2023-05-14T03:42:23;101542.74;;;21.91;36.36
64115;BME280;62188;35.640;139.748;2023-05-14T03:44:48;101531.85;;;21.97;36.13
64115;BME280;62188;35.640;139.748;2023-05-14T03:47:14;101522.77;;;21.86;36.35
64115;BME280;62188;35.640;139.748;2023-05-14T03:49:39;101527.01;;;22.30;36.29
64115;BME280;62188;35.640;139.748;2023-05-14T03:52:05;101527.78;;;21.97;36.28
64115;BME280;62188;35.640;139.748;2023-05-14T03:54:30;101531.65;;;21.83;36.46
64115;BME280;62188;35.640;139.748;2023-05-14T03:56:55;101524.75;;;21.99;36.54
64115;BME280;62188;35.640;139.748;2023-05-14T03:59:21;101526.75;;;21.77;36.47
64115;BME280;62188;35.640;139.748;2023-05-14T04:01:47;101525.84;;;22.02;36.47
64115;BME280;62188;35.640;139.748;2023-05-14T04:04:12;101524.35;;;21.77;36.40
64115;BME280;62188;35.640;139.748;2023-05-14T04:06:37;101519.28;;;22.00;36.74
64115;BME280;62188;35.640;139.748;2023-05-14T04:09:03;101514.17;;;22.05;36.20
64115;BME280;62188;35.640;139.748;2023-05-14T04:11:28;101508.95;;;21.75;36.35
64115;BME280;62188;35.640;139.748;2023-05-14T04:13:53;101500.70;;;21.94;36.84
64115;BME280;62188;35.640;139.748;2023-05-14T04:16:19;101491.75;;;21.97;36.47
64115;BME280;62188;35.640;139.748;2023-05-14T04:18:45;101489.00;;;21.91;35.97
64115;BME280;62188;35.640;139.748;2023-05-14T04:21:10;101486.81;;;21.64;36.00
64115;BME280;62188;35.640;139.748;2023-05-14T04:23:36;101483.11;;;21.79;36.21
64115;BME280;62188;35.640;139.748;2023-05-14T04:26:01;101482.64;;;21.92;35.86
64115;BME280;62188;35.640;139.748;2023-05-14T04:28:26;101478.49;;;22.00;36.32
64115;BME280;62188;35.640;139.748;2023-05-14T04:30:51;101482.51;;;21.86;36.74
64115;BME280;62188;35.640;139.748;2023-05-14T04:33:17;101473.27;;;21.90;37.99
64115;BME280;62188;35.640;139.748;2023-05-14T04:35:44;101469.54;;;21.64;37.98
64115;BME280;62188;35.640;139.748;2023-05-14T04:38:08;101459.08;;;21.41;38.13
64115;BME280;62188;35.640;139.748;2023-05-14T04:40:33;101455.29;;;21.63;38.09
64115;BME280;62188;35.640;139.748;2023-05-14T04:43:00;101454.37;;;21.52;37.98
64115;BME280;62188;35.640;139.748;2023-05-14T04:45:24;101451.87;;;21.85;37.99
64115;BME280;62188;35.640;139.748;2023-05-14T04:47:50;101446.16;;;21.70;37.33
64115;BME280;62188;35.640;139.748;2023-05-14T04:50:16;101445.05;;;21.93;37.08
64115;BME280;62188;35.640;139.748;2023-05-14T04:52:41;101453.72;;;21.90;36.90
64115;BME280;62188;35.640;139.748;2023-05-14T04:55:08;101447.81;;;21.62;36.19
64115;BME280;62188;35.640;139.748;2023-05-14T04:57:32;101442.85;;;21.95;36.15
64115;BME280;62188;35.640;139.748;2023-05-14T04:59:58;101438.38;;;22.28;36.02
64115;BME280;62188;35.640;139.748;2023-05-14T05:02:23;101436.67;;;22.40;35.82
64115;BME280;62188;35.640;139.748;2023-05-14T05:04:49;101431.99;;;22.07;35.87
64115;BME280;62188;35.640;139.748;2023-05-14T05:07:14;101426.12;;;22.11;36.02
64115;BME280;62188;35.640;139.748;2023-05-14T05:09:39;101419.75;;;22.21;36.04
64115;BME280;62188;35.640;139.748;2023-05-14T05:12:05;101412.26;;;22.56;35.65
64115;BME280;62188;35.640;139.748;2023-05-14T05:14:30;101409.45;;;22.27;35.51
64115;BME280;62188;35.640;139.748;2023-05-14T05:16:56;101402.96;;;22.26;36.02
64115;BME280;62188;35.640;139.748;2023-05-14T05:19:21;101403.75;;;22.16;36.14
64115;BME280;62188;35.640;139.748;2023-05-14T05:21:46;101395.16;;;21.99;36.21
64115;BME280;62188;35.640;139.748;2023-05-14T05:24:12;101392.75;;;22.25;35.43
64115;BME280;62188;35.640;139.748;2023-05-14T05:26:37;101390.45;;;22.35;35.61
64115;BME280;62188;35.640;139.748;2023-05-14T05:29:03;101394.78;;;22.21;35.75
64115;BME280;62188;35.640;139.748;2023-05-14T05:31:28;101390.76;;;22.05;35.37
64115;BME280;62188;35.640;139.748;2023-05-14T05:33:54;101391.47;;;21.90;35.91
64115;BME280;62188;35.640;139.748;2023-05-14T05:36:20;101392.41;;;21.55;36.23
64115;BME280;62188;35.640;139.748;2023-05-14T05:38:44;101402.47;;;22.04;36.29
64115;BME280;62188;35.640;139.748;2023-05-14T05:41:10;101391.86;;;21.66;36.85
64115;BME280;62188;35.640;139.748;2023-05-14T05:43:35;101385.61;;;21.73;37.07
64115;BME280;62188;35.640;139.748;2023-05-14T05:46:01;101386.06;;;21.71;37.20
64115;BME280;62188;35.640;139.748;2023-05-14T05:48:26;101378.91;;;21.52;37.20
64115;BME280;62188;35.640;139.748;2023-05-14T05:50:52;101381.43;;;21.52;37.46
64115;BME280;62188;35.640;139.748;2023-05-14T05:53:17;101374.77;;;21.96;37.37
64115;BME280;62188;35.640;139.748;2023-05-14T05:55:42;101374.25;;;21.18;37.12
64115;BME280;62188;35.640;139.748;2023-05-14T05:58:08;101376.30;;;21.21;37.36
64115;BME280;62188;35.640;139.748;2023-05-14T06:00:34;101375.92;;;20.89;38.17
64115;BME280;62188;35.640;139.748;2023-05-14T06:02:59;101377.37;;;20.54;38.51
64115;BME280;62188;35.640;139.748;2023-05-14T06:05:25;101376.52;;;20.56;38.91
64115;BME280;62188;35.640;139.748;2023-05-14T06:07:50;101376.94;;;20.71;38.79
64115;BME280;62188;35.640;139.748;2023-05-14T06:10:15;101377.48;;;20.96;38.88
64115;BME280;62188;35.640;139.748;2023-05-14T06:12:40;101382.31;;;20.81;39.45
64115;BME280;62188;35.640;139.748;2023-05-14T06:15:07;101379.61;;;20.67;39.54
64115;BME280;62188;35.640;139.748;2023-05-14T06:17:32;101383.54;;;20.31;40.37
64115;BME280;62188;35.640;139.748;2023-05-14T06:19:57;101385.37;;;20.47;40.03
64115;BME280;62188;35.640;139.748;2023-05-14T06:22:23;101382.92;;;20.41;40.11
64115;BME280;62188;35.640;139.748;2023-05-14T06:24:48;101386.69;;;20.56;40.01
64115;BME280;62188;35.640;139.748;2023-05-14T06:27:14;101386.03;;;20.51;39.90
64115;BME280;62188;35.640;139.748;2023-05-14T06:29:39;101381.74;;;20.19;40.14
64115;BME280;62188;35.640;139.748;2023-05-14T06:32:05;101374.11;;;20.07;40.46
64115;BME280;62188;35.640;139.748;2023-05-14T06:34:30;101377.89;;;20.24;40.42
64115;BME280;62188;35.640;139.748;2023-05-14T06:36:55;101378.79;;;20.59;40.22
64115;BME280;62188;35.640;139.748;2023-05-14T06:39:21;101389.04;;;20.70;40.35
64115;BME280;62188;35.640;139.748;2023-05-14T06:41:47;101379.45;;;20.84;40.30
64115;BME280;62188;35.640;139.748;2023-05-14T06:44:12;101380.42;;;20.92;40.31
64115;BME280;62188;35.640;139.748;2023-05-14T06:46:38;101375.56;;;21.02;39.89
64115;BME280;62188;35.640;139.748;2023-05-14T06:49:03;101381.42;;;20.47;39.63
64115;BME280;62188;35.640;139.748;2023-05-14T06:51:28;101380.66;;;20.52;40.09
64115;BME280;62188;35.640;139.748;2023-05-14T06:53:55;101380.12;;;20.55;40.40
64115;BME280;62188;35.640;139.748;2023-05-14T06:56:19;101382.27;;;20.50;40.35
64115;BME280;62188;35.640;139.748;2023-05-14T06:58:45;101394.97;;;20.76;40.08
64115;BME280;62188;35.640;139.748;2023-05-14T07:01:10;101382.82;;;20.64;39.96
64115;BME280;62188;35.640;139.748;2023-05-14T07:03:36;101398.27;;;20.53;40.27
64115;BME280;62188;35.640;139.748;2023-05-14T07:06:01;101394.39;;;20.73;40.59
64115;BME280;62188;35.640;139.748;2023-05-14T07:08:26;101403.16;;;20.55;41.10
64115;BME280;62188;35.640;139.748;2023-05-14T07:10:52;101422.54;;;20.44;42.51
64115;BME280;62188;35.640;139.748;2023-05-14T07:13:17;101425.86;;;20.11;45.08
64115;BME280;62188;35.640;139.748;2023-05-14T07:15:43;101430.88;;;20.17;46.54
64115;BME280;62188;35.640;139.748;2023-05-14T07:18:08;101433.94;;;20.23;47.08
64115;BME280;62188;35.640;139.748;2023-05-14T07:20:34;101433.16;;;20.27;47.37
64115;BME280;62188;35.640;139.748;2023-05-14T07:22:59;101426.40;;;20.04;47.55
64115;BME280;62188;35.640;139.748;2023-05-14T07:25:25;101429.82;;;20.11;47.82
64115;BME280;62188;35.640;139.748;2023-05-14T07:27:50;101438.71;;;20.05;46.68
64115;BME280;62188;35.640;139.748;2023-05-14T07:30:16;101433.85;;;19.86;46.26
64115;BME280;62188;35.640;139.748;2023-05-14T07:32:41;101442.94;;;19.72;45.86
64115;BME280;62188;35.640;139.748;2023-05-14T07:35:08;101432.11;;;19.53;45.44
64115;BME280;62188;35.640;139.748;2023-05-14T07:37:32;101434.40;;;19.69;45.40
64115;BME280;62188;35.640;139.748;2023-05-14T07:39:58;101430.74;;;19.94;45.74
64115;BME280;62188;35.640;139.748;2023-05-14T07:42:23;101427.12;;;19.89;46.12
64115;BME280;62188;35.640;139.748;2023-05-14T07:44:49;101431.97;;;20.02;46.14
64115;BME280;62188;35.640;139.748;2023-05-14T07:47:14;101423.97;;;20.20;46.13
64115;BME280;62188;35.640;139.748;2023-05-14T07:49:40;101436.67;;;20.14;46.47
64115;BME280;62188;35.640;139.748;2023-05-14T07:52:06;101427.08;;;20.25;46.71
64115;BME280;62188;35.640;139.748;2023-05-14T07:54:31;101427.33;;;20.30;46.59
64115;BME280;62188;35.640;139.748;2023-05-14T07:56:56;101431.26;;;20.26;46.82
64115;BME280;62188;35.640;139.748;2023-05-14T07:59:22;101429.89;;;20.16;46.29
64115;BME280;62188;35.640;139.748;2023-05-14T08:01:47;101428.67;;;20.11;45.71
64115;BME280;62188;35.640;139.748;2023-05-14T08:04:13;101434.29;;;19.88;45.97
64115;BME280;62188;35.640;139.748;2023-05-14T08:06:39;101434.75;;;20.38;46.09
64115;BME280;62188;35.640;139.748;2023-05-14T08:09:04;101437.57;;;19.96;46.29
64115;BME280;62188;35.640;139.748;2023-05-14T08:11:29;101440.96;;;20.21;46.29
64115;BME280;62188;35.640;139.748;2023-05-14T08:13:55;101436.98;;;19.95;46.10
64115;BME280;62188;35.640;139.748;2023-05-14T08:16:20;101443.69;;;20.04;46.44
64115;BME280;62188;35.640;139.748;2023-05-14T08:18:45;101438.88;;;20.10;46.61
64115;BME280;62188;35.640;139.748;2023-05-14T08:21:11;101443.91;;;20.16;46.56
64115;BME280;62188;35.640;139.748;2023-05-14T08:23:36;101439.16;;;20.19;46.86
64115;BME280;62188;35.640;139.748;2023-05-14T08:26:02;101437.18;;;19.88;47.02
64115;BME280;62188;35.640;139.748;2023-05-14T08:28:28;101433.98;;;20.10;47.67
64115;BME280;62188;35.640;139.748;2023-05-14T08:30:53;101434.84;;;19.98;47.55
64115;BME280;62188;35.640;139.748;2023-05-14T08:33:19;101439.89;;;20.09;47.10
64115;BME280;62188;35.640;139.748;2023-05-14T08:35:44;101441.11;;;19.66;46.89
64115;BME280;62188;35.640;139.748;2023-05-14T08:38:10;101438.80;;;19.66;47.25
64115;BME280;62188;35.640;139.748;2023-05-14T08:40:36;101441.48;;;19.64;46.78
64115;BME280;62188;35.640;139.748;2023-05-14T08:43:02;101444.25;;;19.45;46.86
64115;BME280;62188;35.640;139.748;2023-05-14T08:45:29;101442.92;;;19.65;47.04
64115;BME280;62188;35.640;139.748;2023-05-14T08:47:52;101441.11;;;19.73;46.36
64115;BME280;62188;35.640;139.748;2023-05-14T08:50:18;101448.49;;;19.67;45.93
64115;BME280;62188;35.640;139.748;2023-05-14T08:52:43;101443.66;;;19.56;45.78
64115;BME280;62188;35.640;139.748;2023-05-14T08:55:10;101445.38;;;19.48;45.42
64115;BME280;62188;35.640;139.748;2023-05-14T08:57:34;101447.84;;;19.36;45.82
64115;BME280;62188;35.640;139.748;2023-05-14T09:00:00;101443.09;;;19.23;45.81
64115;BME280;62188;35.640;139.748;2023-05-14T09:02:27;101444.74;;;19.36;46.07
64115;BME280;62188;35.640;139.748;2023-05-14T09:04:53;101442.30;;;19.12;46.33
64115;BME280;62188;35.640;139.748;2023-05-14T09:07:15;101441.11;;;19.35;46.34
64115;BME280;62188;35.640;139.748;2023-05-14T09:09:41;101439.75;;;19.37;46.70
64115;BME280;62188;35.640;139.748;2023-05-14T09:12:07;101442.80;;;19.24;46.79
64115;BME280;62188;35.640;139.748;2023-05-14T09:14:33;101446.92;;;19.14;47.73
64115;BME280;62188;35.640;139.748;2023-05-14T09:16:58;101444.95;;;19.14;48.07
64115;BME280;62188;35.640;139.748;2023-05-14T09:19:23;101443.76;;;19.03;48.43
64115;BME280;62188;35.640;139.748;2023-05-14T09:21:49;101440.86;;;19.02;48.40
64115;BME280;62188;35.640;139.748;2023-05-14T09:24:19;101448.94;;;19.04;48.65
64115;BME280;62188;35.640;139.748;2023-05-14T09:26:39;101453.78;;;18.92;48.81
64115;BME280;62188;35.640;139.748;2023-05-14T09:29:05;101449.18;;;18.57;49.76
64115;BME280;62188;35.640;139.748;2023-05-14T09:31:31;101441.08;;;18.51;49.98
64115;BME280;62188;35.640;139.748;2023-05-14T09:33:56;101439.31;;;18.52;50.02
64115;BME280;62188;35.640;139.748;2023-05-14T09:36:21;101434.73;;;18.48;50.34
64115;BME280;62188;35.640;139.748;2023-05-14T09:38:46;101442.55;;;18.62;49.67
64115;BME280;62188;35.640;139.748;2023-05-14T09:41:12;101442.41;;;18.68;49.48
64115;BME280;62188;35.640;139.748;2023-05-14T09:43:38;101442.90;;;18.84;49.17
64115;BME280;62188;35.640;139.748;2023-05-14T09:46:03;101447.77;;;18.99;48.60
64115;BME280;62188;35.640;139.748;2023-05-14T09:48:29;101445.81;;;18.75;48.24
64115;BME280;62188;35.640;139.748;2023-05-14T09:50:54;101441.04;;;18.88;48.12
64115;BME280;62188;35.640;139.748;2023-05-14T09:53:20;101434.36;;;19.09;47.64
64115;BME280;62188;35.640;139.748;2023-05-14T09:55:45;101443.88;;;19.18;47.18
64115;BME280;62188;35.640;139.748;2023-05-14T09:58:10;101448.79;;;19.12;46.48
64115;BME280;62188;35.640;139.748;2023-05-14T10:00:36;101442.36;;;18.96;46.95
64115;BME280;62188;35.640;139.748;2023-05-14T10:03:05;101447.90;;;18.91;47.14
64115;BME280;62188;35.640;139.748;2023-05-14T10:05:28;101453.81;;;19.06;47.31
64115;BME280;62188;35.640;139.748;2023-05-14T10:07:55;101450.26;;;19.13;47.11
64115;BME280;62188;35.640;139.748;2023-05-14T10:10:20;101447.47;;;18.62;48.20
64115;BME280;62188;35.640;139.748;2023-05-14T10:12:47;101440.35;;;18.28;48.71
64115;BME280;62188;35.640;139.748;2023-05-14T10:15:16;101429.55;;;18.27;48.62
64115;BME280;62188;35.640;139.748;2023-05-14T10:17:35;101430.99;;;18.35;47.65
64115;BME280;62188;35.640;139.748;2023-05-14T10:20:00;101428.60;;;18.26;47.39
64115;BME280;62188;35.640;139.748;2023-05-14T10:22:29;101428.19;;;18.22;47.12
64115;BME280;62188;35.640;139.748;2023-05-14T10:24:51;101420.06;;;18.42;47.04
64115;BME280;62188;35.640;139.748;2023-05-14T10:27:16;101413.40;;;18.22;47.45
64115;BME280;62188;35.640;139.748;2023-05-14T10:29:41;101415.35;;;18.45;46.77
64115;BME280;62188;35.640;139.748;2023-05-14T10:32:08;101415.15;;;18.63;46.74
64115;BME280;62188;35.640;139.748;2023-05-14T10:34:34;101416.07;;;18.57;47.04
64115;BME280;62188;35.640;139.748;2023-05-14T10:37:00;101410.52;;;18.70;46.54
64115;BME280;62188;35.640;139.748;2023-05-14T10:39:25;101407.35;;;18.80;45.99
64115;BME280;62188;35.640;139.748;2023-05-14T10:41:49;101402.47;;;19.05;46.03
64115;BME280;62188;35.640;139.748;2023-05-14T10:44:15;101397.93;;;18.77;45.04
64115;BME280;62188;35.640;139.748;2023-05-14T10:46:39;101396.61;;;19.38;44.75
64115;BME280;62188;35.640;139.748;2023-05-14T10:49:05;101395.26;;;19.16;44.59
64115;BME280;62188;35.640;139.748;2023-05-14T10:51:30;101396.99;;;19.61;44.01
64115;BME280;62188;35.640;139.748;2023-05-14T10:53:57;101393.00;;;19.54;43.18
64115;BME280;62188;35.640;139.748;2023-05-14T10:56:21;101390.97;;;19.68;42.49
64115;BME280;62188;35.640;139.748;2023-05-14T10:58:46;101397.12;;;19.89;42.61
64115;BME280;62188;35.640;139.748;2023-05-14T11:01:13;101398.71;;;19.96;42.00
64115;BME280;62188;35.640;139.748;2023-05-14T11:03:42;101401.87;;;20.09;41.95
64115;BME280;62188;35.640;139.748;2023-05-14T11:06:03;101401.41;;;20.24;41.18
64115;BME280;62188;35.640;139.748;2023-05-14T11:08:29;101399.44;;;20.33;40.25
64115;BME280;62188;35.640;139.748;2023-05-14T11:10:56;101404.61;;;20.27;39.96
64115;BME280;62188;35.640;139.748;2023-05-14T11:13:19;101412.04;;;20.03;40.33
64115;BME280;62188;35.640;139.748;2023-05-14T11:15:45;101414.94;;;20.30;40.66
64115;BME280;62188;35.640;139.748;2023-05-14T11:18:10;101414.18;;;19.95;41.04
64115;BME280;62188;35.640;139.748;2023-05-14T11:20:36;101418.48;;;20.21;41.32
64115;BME280;62188;35.640;139.748;2023-05-14T11:23:02;101417.16;;;19.93;42.50
64115;BME280;62188;35.640;139.748;2023-05-14T11:25:27;101415.49;;;19.79;44.45
64115;BME280;62188;35.640;139.748;2023-05-14T11:27:52;101412.13;;;19.72;44.80
64115;BME280;62188;35.640;139.748;2023-05-14T11:30:19;101420.41;;;19.74;44.93
64115;BME280;62188;35.640;139.748;2023-05-14T11:32:45;101424.03;;;19.63;45.49
64115;BME280;62188;35.640;139.748;2023-05-14T11:35:09;101428.04;;;19.67;45.79
64115;BME280;62188;35.640;139.748;2023-05-14T11:37:34;101428.64;;;19.59;46.16
64115;BME280;62188;35.640;139.748;2023-05-14T11:40:00;101423.79;;;19.53;46.72
64115;BME280;62188;35.640;139.748;2023-05-14T11:42:25;101423.89;;;19.80;46.79
64115;BME280;62188;35.640;139.748;2023-05-14T11:44:51;101421.71;;;19.52;47.13
64115;BME280;62188;35.640;139.748;2023-05-14T11:47:17;101422.05;;;19.26;47.75
64115;BME280;62188;35.640;139.748;2023-05-14T11:49:41;101421.02;;;19.25;48.14
64115;BME280;62188;35.640;139.748;2023-05-14T11:52:08;101420.35;;;19.39;48.03
64115;BME280;62188;35.640;139.748;2023-05-14T11:54:33;101415.84;;;19.68;47.80
64115;BME280;62188;35.640;139.748;2023-05-14T11:57:00;101414.15;;;19.41;48.65
64115;BME280;62188;35.640;139.748;2023-05-14T11:59:25;101407.58;;;19.38;49.15
64115;BME280;62188;35.640;139.748;2023-05-14T12:01:49;101408.36;;;19.36;49.27
64115;BME280;62188;35.640;139.748;2023-05-14T12:04:14;101407.83;;;19.11;49.51
64115;BME280;62188;35.640;139.748;2023-05-14T12:06:40;101405.65;;;19.14;49.65
64115;BME280;62188;35.640;139.748;2023-05-14T12:09:05;101407.71;;;18.94;49.30
64115;BME280;62188;35.640;139.748;2023-05-14T12:11:31;101408.94;;;18.71;49.53
64115;BME280;62188;35.640;139.748;2023-05-14T12:13:56;101411.81;;;18.80;50.03
64115;BME280;62188;35.640;139.748;2023-05-14T12:16:22;101405.65;;;18.65;50.08
64115;BME280;62188;35.640;139.748;2023-05-14T12:18:47;101403.99;;;18.70;50.55
64115;BME280;62188;35.640;139.748;2023-05-14T12:21:13;101396.66;;;18.89;50.52